sensor_id;sensor_type;location;lat;lon;timestamp;P1;durP1;ratioP1;P2;durP2;ratioP2
65387;SDS011;51992;53.528;49.474;2022-11-21T00:01:21;18.90;;;12.30;;
65387;SDS011;51992;53.528;49.474;2022-11-21T00:03:47;19.50;;;12.73;;
65387;SDS011;51992;53.528;49.474;2022-11-21T00:06:13;19.85;;;12.85;;
65387;SDS011;51992;53.528;49.474;2022-11-21T00:08:39;19.27;;;12.43;;
65387;SDS011;51992;53.528;49.474;2022-11-21T00:11:05;16.73;;;12.15;;
65387;SDS011;51992;53.528;49.474;2022-11-21T00:13:31;15.82;;;11.38;;
65387;SDS011;51992;53.528;49.474;2022-11-21T00:16:01;16.83;;;11.18;;
65387;SDS011;51992;53.528;49.474;2022-11-21T00:18:27;16.67;;;11.80;;
65387;SDS011;51992;53.528;49.474;2022-11-21T00:20:53;20.38;;;13.60;;
65387;SDS011;51992;53.528;49.474;2022-11-21T00:23:18;17.98;;;12.35;;
65387;SDS011;51992;53.528;49.474;2022-11-21T00:25:44;16.85;;;11.75;;
65387;SDS011;51992;53.528;49.474;2022-11-21T00:28:10;14.00;;;10.40;;
65387;SDS011;51992;53.528;49.474;2022-11-21T00:30:35;16.40;;;11.40;;
65387;SDS011;51992;53.528;49.474;2022-11-21T00:33:01;16.65;;;11.32;;
65387;SDS011;51992;53.528;49.474;2022-11-21T00:35:27;15.07;;;10.73;;
65387;SDS011;51992;53.528;49.474;2022-11-21T00:37:52;19.70;;;12.77;;
65387;SDS011;51992;53.528;49.474;2022-11-21T00:40:18;16.42;;;11.13;;
65387;SDS011;51992;53.528;49.474;2022-11-21T00:42:44;14.35;;;10.40;;
65387;SDS011;51992;53.528;49.474;2022-11-21T00:45:10;18.17;;;11.05;;
65387;SDS011;51992;53.528;49.474;2022-11-21T00:47:36;16.52;;;10.95;;
65387;SDS011;51992;53.528;49.474;2022-11-21T00:50:01;14.63;;;11.00;;
65387;SDS011;51992;53.528;49.474;2022-11-21T00:52:27;15.95;;;10.48;;
65387;SDS011;51992;53.528;49.474;2022-11-21T00:54:53;11.73;;;9.50;;
65387;SDS011;51992;53.528;49.474;2022-11-21T00:57:19;13.52;;;10.00;;
65387;SDS011;51992;53.528;49.474;2022-11-21T00:59:44;13.52;;;9.65;;
65387;SDS011;51992;53.528;49.474;2022-11-21T01:02:10;15.48;;;10.88;;
65387;SDS011;51992;53.528;49.474;2022-11-21T01:04:38;17.52;;;11.02;;
65387;SDS011;51992;53.528;49.474;2022-11-21T01:07:03;14.07;;;10.82;;
65387;SDS011;51992;53.528;49.474;2022-11-21T01:09:29;14.23;;;10.70;;
65387;SDS011;51992;53.528;49.474;2022-11-21T01:11:56;13.65;;;10.55;;
65387;SDS011;51992;53.528;49.474;2022-11-21T01:14:22;14.13;;;10.90;;
65387;SDS011;51992;53.528;49.474;2022-11-21T01:16:48;14.15;;;10.55;;
65387;SDS011;51992;53.528;49.474;2022-11-21T01:19:13;15.40;;;11.18;;
65387;SDS011;51992;53.528;49.474;2022-11-21T01:21:39;18.55;;;12.93;;
65387;SDS011;51992;53.528;49.474;2022-11-21T01:24:05;20.40;;;12.75;;
65387;SDS011;51992;53.528;49.474;2022-11-21T01:26:30;18.83;;;12.60;;
65387;SDS011;51992;53.528;49.474;2022-11-21T01:28:57;20.73;;;13.05;;
65387;SDS011;51992;53.528;49.474;2022-11-21T01:31:24;18.58;;;11.63;;
65387;SDS011;51992;53.528;49.474;2022-11-21T01:33:50;17.88;;;11.80;;
65387;SDS011;51992;53.528;49.474;2022-11-21T01:36:23;16.10;;;11.98;;
65387;SDS011;51992;53.528;49.474;2022-11-21T01:38:50;16.17;;;11.20;;
65387;SDS011;51992;53.528;49.474;2022-11-21T01:44:18;18.58;;;12.43;;
65387;SDS011;51992;53.528;49.474;2022-11-21T01:46:45;18.40;;;12.50;;
65387;SDS011;51992;53.528;49.474;2022-11-21T01:49:21;20.00;;;12.88;;
65387;SDS011;51992;53.528;49.474;2022-11-21T01:54:30;20.30;;;13.55;;
65387;SDS011;51992;53.528;49.474;2022-11-21T01:57:03;22.33;;;14.63;;
65387;SDS011;51992;53.528;49.474;2022-11-21T01:59:32;20.35;;;13.95;;
65387;SDS011;51992;53.528;49.474;2022-11-21T02:01:59;19.27;;;13.65;;
65387;SDS011;51992;53.528;49.474;2022-11-21T02:04:27;19.30;;;13.25;;
65387;SDS011;51992;53.528;49.474;2022-11-21T02:06:55;17.75;;;12.68;;
65387;SDS011;51992;53.528;49.474;2022-11-21T02:09:21;17.10;;;11.57;;
65387;SDS011;51992;53.528;49.474;2022-11-21T02:11:54;17.00;;;10.73;;
65387;SDS011;51992;53.528;49.474;2022-11-21T02:14:22;16.58;;;11.52;;
65387;SDS011;51992;53.528;49.474;2022-11-21T02:16:48;15.63;;;11.32;;
65387;SDS011;51992;53.528;49.474;2022-11-21T02:19:16;16.17;;;10.93;;
65387;SDS011;51992;53.528;49.474;2022-11-21T02:21:57;18.48;;;11.68;;
65387;SDS011;51992;53.528;49.474;2022-11-21T02:27:10;18.38;;;11.75;;
65387;SDS011;51992;53.528;49.474;2022-11-21T02:29:36;16.98;;;11.60;;
65387;SDS011;51992;53.528;49.474;2022-11-21T02:32:02;19.30;;;12.15;;
65387;SDS011;51992;53.528;49.474;2022-11-21T02:34:30;16.40;;;11.20;;
65387;SDS011;51992;53.528;49.474;2022-11-21T02:36:55;15.18;;;10.90;;
65387;SDS011;51992;53.528;49.474;2022-11-21T02:39:22;20.20;;;11.90;;
65387;SDS011;51992;53.528;49.474;2022-11-21T02:41:51;15.90;;;10.30;;
65387;SDS011;51992;53.528;49.474;2022-11-21T02:44:21;15.52;;;10.15;;
65387;SDS011;51992;53.528;49.474;2022-11-21T02:46:49;16.13;;;10.25;;
65387;SDS011;51992;53.528;49.474;2022-11-21T02:49:15;18.40;;;10.63;;
65387;SDS011;51992;53.528;49.474;2022-11-21T02:51:44;14.45;;;10.32;;
65387;SDS011;51992;53.528;49.474;2022-11-21T02:54:10;16.15;;;11.30;;
65387;SDS011;51992;53.528;49.474;2022-11-21T02:56:35;23.45;;;14.25;;
65387;SDS011;51992;53.528;49.474;2022-11-21T02:59:01;24.05;;;14.00;;
65387;SDS011;51992;53.528;49.474;2022-11-21T03:01:27;19.80;;;11.40;;
65387;SDS011;51992;53.528;49.474;2022-11-21T03:03:52;13.75;;;10.30;;
65387;SDS011;51992;53.528;49.474;2022-11-21T03:06:21;12.48;;;9.50;;
65387;SDS011;51992;53.528;49.474;2022-11-21T03:08:47;13.13;;;9.35;;
65387;SDS011;51992;53.528;49.474;2022-11-21T03:11:13;22.73;;;12.50;;
65387;SDS011;51992;53.528;49.474;2022-11-21T03:13:38;22.77;;;13.45;;
65387;SDS011;51992;53.528;49.474;2022-11-21T03:16:04;18.98;;;12.27;;
65387;SDS011;51992;53.528;49.474;2022-11-21T03:18:30;17.60;;;11.55;;
65387;SDS011;51992;53.528;49.474;2022-11-21T03:20:56;17.73;;;11.55;;
65387;SDS011;51992;53.528;49.474;2022-11-21T03:23:22;14.50;;;10.50;;
65387;SDS011;51992;53.528;49.474;2022-11-21T03:25:47;14.60;;;10.57;;
65387;SDS011;51992;53.528;49.474;2022-11-21T03:28:13;16.23;;;11.20;;
65387;SDS011;51992;53.528;49.474;2022-11-21T03:30:39;15.35;;;10.93;;
65387;SDS011;51992;53.528;49.474;2022-11-21T03:33:04;17.85;;;11.48;;
65387;SDS011;51992;53.528;49.474;2022-11-21T03:35:30;21.52;;;12.32;;
65387;SDS011;51992;53.528;49.474;2022-11-21T03:37:56;20.65;;;11.68;;
65387;SDS011;51992;53.528;49.474;2022-11-21T03:40:21;20.98;;;13.15;;
65387;SDS011;51992;53.528;49.474;2022-11-21T03:42:47;18.08;;;11.65;;
65387;SDS011;51992;53.528;49.474;2022-11-21T03:45:13;18.33;;;11.07;;
65387;SDS011;51992;53.528;49.474;2022-11-21T03:47:39;15.55;;;11.15;;
65387;SDS011;51992;53.528;49.474;2022-11-21T03:50:05;16.35;;;10.68;;
65387;SDS011;51992;53.528;49.474;2022-11-21T03:52:31;17.73;;;11.25;;
65387;SDS011;51992;53.528;49.474;2022-11-21T03:54:56;16.73;;;11.02;;
65387;SDS011;51992;53.528;49.474;2022-11-21T03:57:22;17.30;;;11.38;;
65387;SDS011;51992;53.528;49.474;2022-11-21T03:59:48;14.80;;;10.77;;
65387;SDS011;51992;53.528;49.474;2022-11-21T04:02:13;13.27;;;10.38;;
65387;SDS011;51992;53.528;49.474;2022-11-21T04:04:39;15.27;;;11.35;;
65387;SDS011;51992;53.528;49.474;2022-11-21T04:07:05;19.08;;;13.25;;
65387;SDS011;51992;53.528;49.474;2022-11-21T04:09:30;22.83;;;15.25;;
65387;SDS011;51992;53.528;49.474;2022-11-21T04:11:56;26.38;;;18.58;;
65387;SDS011;51992;53.528;49.474;2022-11-21T04:14:21;21.50;;;15.45;;
65387;SDS011;51992;53.528;49.474;2022-11-21T04:16:47;20.05;;;14.23;;
65387;SDS011;51992;53.528;49.474;2022-11-21T04:19:13;20.80;;;15.25;;
65387;SDS011;51992;53.528;49.474;2022-11-21T04:21:39;18.52;;;14.40;;
65387;SDS011;51992;53.528;49.474;2022-11-21T04:24:05;18.15;;;12.30;;
65387;SDS011;51992;53.528;49.474;2022-11-21T04:26:30;15.68;;;11.45;;
65387;SDS011;51992;53.528;49.474;2022-11-21T04:28:56;15.45;;;10.95;;
65387;SDS011;51992;53.528;49.474;2022-11-21T04:31:22;15.68;;;11.13;;
65387;SDS011;51992;53.528;49.474;2022-11-21T04:33:47;18.55;;;10.93;;
65387;SDS011;51992;53.528;49.474;2022-11-21T04:36:13;17.08;;;12.20;;
65387;SDS011;51992;53.528;49.474;2022-11-21T04:38:39;15.55;;;10.80;;
65387;SDS011;51992;53.528;49.474;2022-11-21T04:41:07;16.20;;;11.70;;
65387;SDS011;51992;53.528;49.474;2022-11-21T04:43:33;15.45;;;10.65;;
65387;SDS011;51992;53.528;49.474;2022-11-21T04:45:59;15.25;;;11.25;;
65387;SDS011;51992;53.528;49.474;2022-11-21T04:48:25;20.45;;;14.30;;
65387;SDS011;51992;53.528;49.474;2022-11-21T04:50:50;17.25;;;12.15;;
65387;SDS011;51992;53.528;49.474;2022-11-21T04:53:16;14.93;;;10.55;;
65387;SDS011;51992;53.528;49.474;2022-11-21T04:55:42;14.23;;;9.50;;
65387;SDS011;51992;53.528;49.474;2022-11-21T04:58:07;15.07;;;8.80;;
65387;SDS011;51992;53.528;49.474;2022-11-21T05:00:33;18.13;;;10.50;;
65387;SDS011;51992;53.528;49.474;2022-11-21T05:03:00;19.23;;;9.98;;
65387;SDS011;51992;53.528;49.474;2022-11-21T05:05:26;47.17;;;30.95;;
65387;SDS011;51992;53.528;49.474;2022-11-21T05:07:52;34.65;;;26.77;;
65387;SDS011;51992;53.528;49.474;2022-11-21T05:10:18;34.05;;;26.42;;
65387;SDS011;51992;53.528;49.474;2022-11-21T05:12:43;32.22;;;24.23;;
65387;SDS011;51992;53.528;49.474;2022-11-21T05:15:28;24.73;;;15.90;;
65387;SDS011;51992;53.528;49.474;2022-11-21T05:17:54;25.60;;;19.63;;
65387;SDS011;51992;53.528;49.474;2022-11-21T05:20:19;18.48;;;11.55;;
65387;SDS011;51992;53.528;49.474;2022-11-21T05:22:49;30.67;;;19.00;;
65387;SDS011;51992;53.528;49.474;2022-11-21T05:25:15;22.48;;;15.82;;
65387;SDS011;51992;53.528;49.474;2022-11-21T05:27:41;16.85;;;12.10;;
65387;SDS011;51992;53.528;49.474;2022-11-21T05:30:07;12.50;;;8.30;;
65387;SDS011;51992;53.528;49.474;2022-11-21T05:32:33;13.75;;;8.63;;
65387;SDS011;51992;53.528;49.474;2022-11-21T05:34:58;28.42;;;14.93;;
65387;SDS011;51992;53.528;49.474;2022-11-21T05:37:24;21.73;;;10.80;;
65387;SDS011;51992;53.528;49.474;2022-11-21T05:39:50;17.77;;;7.13;;
65387;SDS011;51992;53.528;49.474;2022-11-21T05:42:15;18.08;;;7.03;;
65387;SDS011;51992;53.528;49.474;2022-11-21T05:45:01;9.20;;;6.10;;
65387;SDS011;51992;53.528;49.474;2022-11-21T05:47:27;7.35;;;5.60;;
65387;SDS011;51992;53.528;49.474;2022-11-21T05:49:53;8.50;;;6.15;;
65387;SDS011;51992;53.528;49.474;2022-11-21T05:52:18;13.65;;;8.48;;
65387;SDS011;51992;53.528;49.474;2022-11-21T05:54:44;9.43;;;7.70;;
65387;SDS011;51992;53.528;49.474;2022-11-21T05:57:10;9.68;;;7.18;;
65387;SDS011;51992;53.528;49.474;2022-11-21T05:59:35;10.20;;;7.53;;
65387;SDS011;51992;53.528;49.474;2022-11-21T06:02:01;11.40;;;7.95;;
65387;SDS011;51992;53.528;49.474;2022-11-21T06:04:45;11.18;;;8.10;;
65387;SDS011;51992;53.528;49.474;2022-11-21T06:07:11;11.98;;;8.43;;
65387;SDS011;51992;53.528;49.474;2022-11-21T06:09:37;14.50;;;8.15;;
65387;SDS011;51992;53.528;49.474;2022-11-21T06:12:02;14.05;;;8.25;;
65387;SDS011;51992;53.528;49.474;2022-11-21T06:14:28;11.48;;;8.30;;
65387;SDS011;51992;53.528;49.474;2022-11-21T06:16:54;12.98;;;8.77;;
65387;SDS011;51992;53.528;49.474;2022-11-21T06:19:19;18.70;;;12.65;;
65387;SDS011;51992;53.528;49.474;2022-11-21T06:21:45;17.65;;;12.45;;
65387;SDS011;51992;53.528;49.474;2022-11-21T06:24:11;14.38;;;9.60;;
65387;SDS011;51992;53.528;49.474;2022-11-21T06:26:36;10.45;;;8.05;;
65387;SDS011;51992;53.528;49.474;2022-11-21T06:29:02;14.50;;;12.35;;
65387;SDS011;51992;53.528;49.474;2022-11-21T06:31:28;28.35;;;19.17;;
65387;SDS011;51992;53.528;49.474;2022-11-21T06:33:55;24.65;;;18.77;;
65387;SDS011;51992;53.528;49.474;2022-11-21T06:36:21;21.60;;;16.67;;
65387;SDS011;51992;53.528;49.474;2022-11-21T06:38:47;14.93;;;12.68;;
65387;SDS011;51992;53.528;49.474;2022-11-21T06:41:14;15.88;;;13.10;;
65387;SDS011;51992;53.528;49.474;2022-11-21T06:43:40;13.80;;;10.43;;
65387;SDS011;51992;53.528;49.474;2022-11-21T06:46:06;12.55;;;7.82;;
65387;SDS011;51992;53.528;49.474;2022-11-21T06:48:32;9.85;;;7.38;;
65387;SDS011;51992;53.528;49.474;2022-11-21T06:51:04;10.77;;;7.20;;
65387;SDS011;51992;53.528;49.474;2022-11-21T06:53:30;9.55;;;6.57;;
65387;SDS011;51992;53.528;49.474;2022-11-21T06:56:00;7.18;;;6.10;;
65387;SDS011;51992;53.528;49.474;2022-11-21T06:58:25;8.65;;;6.68;;
65387;SDS011;51992;53.528;49.474;2022-11-21T07:00:52;8.63;;;6.50;;
65387;SDS011;51992;53.528;49.474;2022-11-21T07:03:17;7.25;;;6.55;;
65387;SDS011;51992;53.528;49.474;2022-11-21T07:05:43;9.95;;;7.28;;
65387;SDS011;51992;53.528;49.474;2022-11-21T07:08:09;6.88;;;6.18;;
65387;SDS011;51992;53.528;49.474;2022-11-21T07:10:34;13.60;;;6.90;;
65387;SDS011;51992;53.528;49.474;2022-11-21T07:13:00;6.22;;;5.40;;
65387;SDS011;51992;53.528;49.474;2022-11-21T07:15:45;5.38;;;4.88;;
65387;SDS011;51992;53.528;49.474;2022-11-21T07:18:11;6.78;;;4.68;;
65387;SDS011;51992;53.528;49.474;2022-11-21T07:20:37;14.40;;;9.93;;
65387;SDS011;51992;53.528;49.474;2022-11-21T07:23:03;19.48;;;12.68;;
65387;SDS011;51992;53.528;49.474;2022-11-21T07:25:29;18.60;;;11.55;;
65387;SDS011;51992;53.528;49.474;2022-11-21T07:27:58;23.10;;;14.45;;
65387;SDS011;51992;53.528;49.474;2022-11-21T07:30:24;17.52;;;10.65;;
65387;SDS011;51992;53.528;49.474;2022-11-21T07:32:56;15.68;;;8.52;;
65387;SDS011;51992;53.528;49.474;2022-11-21T07:35:22;13.27;;;6.40;;
65387;SDS011;51992;53.528;49.474;2022-11-21T07:37:48;12.20;;;6.32;;
65387;SDS011;51992;53.528;49.474;2022-11-21T07:40:13;17.40;;;6.55;;
65387;SDS011;51992;53.528;49.474;2022-11-21T07:42:39;11.88;;;7.78;;
65387;SDS011;51992;53.528;49.474;2022-11-21T07:45:05;8.48;;;6.43;;
65387;SDS011;51992;53.528;49.474;2022-11-21T07:47:31;10.95;;;5.95;;
65387;SDS011;51992;53.528;49.474;2022-11-21T07:49:56;10.18;;;6.55;;
65387;SDS011;51992;53.528;49.474;2022-11-21T07:52:22;9.43;;;5.93;;
65387;SDS011;51992;53.528;49.474;2022-11-21T07:54:49;10.10;;;6.85;;
65387;SDS011;51992;53.528;49.474;2022-11-21T07:57:15;12.00;;;7.30;;
65387;SDS011;51992;53.528;49.474;2022-11-21T07:59:40;16.35;;;8.75;;
65387;SDS011;51992;53.528;49.474;2022-11-21T08:02:11;19.98;;;12.40;;
65387;SDS011;51992;53.528;49.474;2022-11-21T08:04:38;13.13;;;9.25;;
65387;SDS011;51992;53.528;49.474;2022-11-21T08:07:03;17.90;;;8.25;;
65387;SDS011;51992;53.528;49.474;2022-11-21T08:09:29;16.70;;;9.00;;
65387;SDS011;51992;53.528;49.474;2022-11-21T08:11:54;13.27;;;10.43;;
65387;SDS011;51992;53.528;49.474;2022-11-21T08:14:20;16.60;;;11.38;;
65387;SDS011;51992;53.528;49.474;2022-11-21T08:16:46;16.52;;;10.98;;
65387;SDS011;51992;53.528;49.474;2022-11-21T08:19:11;19.63;;;9.93;;
65387;SDS011;51992;53.528;49.474;2022-11-21T08:21:37;17.13;;;11.82;;
65387;SDS011;51992;53.528;49.474;2022-11-21T08:24:03;17.25;;;11.35;;
65387;SDS011;51992;53.528;49.474;2022-11-21T08:26:29;11.00;;;8.52;;
65387;SDS011;51992;53.528;49.474;2022-11-21T08:28:55;11.13;;;8.07;;
65387;SDS011;51992;53.528;49.474;2022-11-21T08:31:20;9.75;;;8.18;;
65387;SDS011;51992;53.528;49.474;2022-11-21T08:33:46;10.10;;;8.18;;
65387;SDS011;51992;53.528;49.474;2022-11-21T08:36:12;11.13;;;7.53;;
65387;SDS011;51992;53.528;49.474;2022-11-21T08:38:37;9.85;;;7.13;;
65387;SDS011;51992;53.528;49.474;2022-11-21T08:41:03;10.38;;;8.20;;
65387;SDS011;51992;53.528;49.474;2022-11-21T08:43:47;11.18;;;9.60;;
65387;SDS011;51992;53.528;49.474;2022-11-21T08:46:13;10.98;;;8.30;;
65387;SDS011;51992;53.528;49.474;2022-11-21T08:48:39;11.95;;;8.25;;
65387;SDS011;51992;53.528;49.474;2022-11-21T08:51:05;8.63;;;7.18;;
65387;SDS011;51992;53.528;49.474;2022-11-21T08:53:30;10.70;;;7.22;;
65387;SDS011;51992;53.528;49.474;2022-11-21T08:55:56;9.48;;;8.10;;
65387;SDS011;51992;53.528;49.474;2022-11-21T08:58:22;13.27;;;8.65;;
65387;SDS011;51992;53.528;49.474;2022-11-21T09:00:47;8.95;;;6.68;;
65387;SDS011;51992;53.528;49.474;2022-11-21T09:03:13;15.23;;;6.50;;
65387;SDS011;51992;53.528;49.474;2022-11-21T09:05:39;13.77;;;5.80;;
65387;SDS011;51992;53.528;49.474;2022-11-21T09:08:05;12.57;;;7.05;;
65387;SDS011;51992;53.528;49.474;2022-11-21T09:10:30;10.98;;;5.85;;
65387;SDS011;51992;53.528;49.474;2022-11-21T09:12:57;13.43;;;6.57;;
65387;SDS011;51992;53.528;49.474;2022-11-21T09:15:23;11.18;;;6.53;;
65387;SDS011;51992;53.528;49.474;2022-11-21T09:18:09;10.68;;;6.75;;
65387;SDS011;51992;53.528;49.474;2022-11-21T09:20:39;11.63;;;7.25;;
65387;SDS011;51992;53.528;49.474;2022-11-21T09:23:06;13.35;;;8.52;;
65387;SDS011;51992;53.528;49.474;2022-11-21T09:25:32;86.57;;;26.05;;
65387;SDS011;51992;53.528;49.474;2022-11-21T09:28:02;131.48;;;46.72;;
65387;SDS011;51992;53.528;49.474;2022-11-21T09:30:28;70.88;;;31.35;;
65387;SDS011;51992;53.528;49.474;2022-11-21T09:32:57;28.40;;;15.98;;
65387;SDS011;51992;53.528;49.474;2022-11-21T09:35:23;15.05;;;8.90;;
65387;SDS011;51992;53.528;49.474;2022-11-21T09:37:49;16.45;;;8.48;;
65387;SDS011;51992;53.528;49.474;2022-11-21T09:40:17;19.50;;;12.60;;
65387;SDS011;51992;53.528;49.474;2022-11-21T09:45:21;29.45;;;19.95;;
65387;SDS011;51992;53.528;49.474;2022-11-21T09:47:50;15.07;;;11.27;;
65387;SDS011;51992;53.528;49.474;2022-11-21T09:50:26;17.00;;;10.45;;
65387;SDS011;51992;53.528;49.474;2022-11-21T09:53:02;10.52;;;9.30;;
65387;SDS011;51992;53.528;49.474;2022-11-21T09:58:08;19.52;;;12.93;;
65387;SDS011;51992;53.528;49.474;2022-11-21T10:00:39;30.15;;;18.80;;
65387;SDS011;51992;53.528;49.474;2022-11-21T10:03:04;32.03;;;19.63;;
65387;SDS011;51992;53.528;49.474;2022-11-21T10:05:52;25.05;;;15.98;;
65387;SDS011;51992;53.528;49.474;2022-11-21T10:08:21;22.10;;;14.75;;
65387;SDS011;51992;53.528;49.474;2022-11-21T10:18:46;19.13;;;13.35;;
65387;SDS011;51992;53.528;49.474;2022-11-21T10:26:51;20.63;;;15.48;;
65387;SDS011;51992;53.528;49.474;2022-11-21T10:31:46;22.00;;;17.02;;
65387;SDS011;51992;53.528;49.474;2022-11-21T10:34:17;22.63;;;16.77;;
65387;SDS011;51992;53.528;49.474;2022-11-21T10:36:45;20.10;;;15.70;;
65387;SDS011;51992;53.528;49.474;2022-11-21T10:39:22;20.15;;;14.95;;
65387;SDS011;51992;53.528;49.474;2022-11-21T10:41:56;15.32;;;12.85;;
65387;SDS011;51992;53.528;49.474;2022-11-21T10:44:27;15.68;;;12.90;;
65387;SDS011;51992;53.528;49.474;2022-11-21T10:47:12;16.15;;;14.15;;
65387;SDS011;51992;53.528;49.474;2022-11-21T10:49:38;16.55;;;13.38;;
65387;SDS011;51992;53.528;49.474;2022-11-21T10:52:12;25.73;;;19.20;;
65387;SDS011;51992;53.528;49.474;2022-11-21T10:57:47;15.25;;;11.73;;
65387;SDS011;51992;53.528;49.474;2022-11-21T11:03:01;19.95;;;12.63;;
65387;SDS011;51992;53.528;49.474;2022-11-21T11:05:30;18.27;;;13.10;;
65387;SDS011;51992;53.528;49.474;2022-11-21T11:10:28;15.75;;;12.00;;
65387;SDS011;51992;53.528;49.474;2022-11-21T11:12:55;15.18;;;11.70;;
65387;SDS011;51992;53.528;49.474;2022-11-21T11:15:51;14.70;;;11.23;;
65387;SDS011;51992;53.528;49.474;2022-11-21T11:18:18;21.20;;;12.32;;
65387;SDS011;51992;53.528;49.474;2022-11-21T11:20:45;18.70;;;12.57;;
65387;SDS011;51992;53.528;49.474;2022-11-21T11:27:10;13.93;;;11.27;;
65387;SDS011;51992;53.528;49.474;2022-11-21T11:29:50;15.82;;;10.43;;
65387;SDS011;51992;53.528;49.474;2022-11-21T11:32:17;12.90;;;10.07;;
65387;SDS011;51992;53.528;49.474;2022-11-21T11:37:12;13.18;;;9.73;;
65387;SDS011;51992;53.528;49.474;2022-11-21T11:48:48;11.02;;;9.18;;
65387;SDS011;51992;53.528;49.474;2022-11-21T11:53:44;12.85;;;10.00;;
65387;SDS011;51992;53.528;49.474;2022-11-21T11:56:24;13.68;;;9.48;;
65387;SDS011;51992;53.528;49.474;2022-11-21T11:58:53;13.38;;;10.02;;
65387;SDS011;51992;53.528;49.474;2022-11-21T12:04:16;27.77;;;16.45;;
65387;SDS011;51992;53.528;49.474;2022-11-21T12:12:02;17.52;;;11.45;;
65387;SDS011;51992;53.528;49.474;2022-11-21T12:17:23;17.17;;;11.32;;
65387;SDS011;51992;53.528;49.474;2022-11-21T12:19:49;20.90;;;13.23;;
65387;SDS011;51992;53.528;49.474;2022-11-21T12:22:16;15.30;;;10.77;;
65387;SDS011;51992;53.528;49.474;2022-11-21T12:24:42;16.52;;;10.50;;
65387;SDS011;51992;53.528;49.474;2022-11-21T12:29:52;17.35;;;10.73;;
65387;SDS011;51992;53.528;49.474;2022-11-21T12:37:32;15.40;;;9.70;;
65387;SDS011;51992;53.528;49.474;2022-11-21T12:40:09;13.30;;;9.95;;
65387;SDS011;51992;53.528;49.474;2022-11-21T12:42:53;14.05;;;9.60;;
65387;SDS011;51992;53.528;49.474;2022-11-21T12:45:25;14.07;;;9.73;;
65387;SDS011;51992;53.528;49.474;2022-11-21T12:50:54;15.82;;;10.57;;
65387;SDS011;51992;53.528;49.474;2022-11-21T12:56:53;18.20;;;11.50;;
65387;SDS011;51992;53.528;49.474;2022-11-21T12:59:21;16.85;;;10.48;;
65387;SDS011;51992;53.528;49.474;2022-11-21T13:04:14;12.15;;;9.20;;
65387;SDS011;51992;53.528;49.474;2022-11-21T13:06:41;15.98;;;9.73;;
65387;SDS011;51992;53.528;49.474;2022-11-21T13:09:08;18.92;;;8.57;;
65387;SDS011;51992;53.528;49.474;2022-11-21T13:14:26;14.60;;;9.27;;
65387;SDS011;51992;53.528;49.474;2022-11-21T13:16:57;16.75;;;9.88;;
65387;SDS011;51992;53.528;49.474;2022-11-21T13:19:34;14.77;;;10.48;;
65387;SDS011;51992;53.528;49.474;2022-11-21T13:22:01;15.00;;;10.48;;
65387;SDS011;51992;53.528;49.474;2022-11-21T13:27:25;15.02;;;9.60;;
65387;SDS011;51992;53.528;49.474;2022-11-21T13:32:36;10.45;;;8.73;;
65387;SDS011;51992;53.528;49.474;2022-11-21T13:35:02;9.23;;;7.57;;
65387;SDS011;51992;53.528;49.474;2022-11-21T13:45:36;10.35;;;7.25;;
65387;SDS011;51992;53.528;49.474;2022-11-21T13:48:13;10.27;;;7.53;;
65387;SDS011;51992;53.528;49.474;2022-11-21T14:10:45;11.68;;;7.82;;
65387;SDS011;51992;53.528;49.474;2022-11-21T14:13:30;9.77;;;7.70;;
65387;SDS011;51992;53.528;49.474;2022-11-21T14:18:55;11.13;;;6.95;;
65387;SDS011;51992;53.528;49.474;2022-11-21T14:21:26;13.63;;;9.68;;
65387;SDS011;51992;53.528;49.474;2022-11-21T14:23:53;15.77;;;8.45;;
65387;SDS011;51992;53.528;49.474;2022-11-21T14:26:20;26.30;;;16.20;;
65387;SDS011;51992;53.528;49.474;2022-11-21T14:28:47;23.30;;;16.15;;
65387;SDS011;51992;53.528;49.474;2022-11-21T14:31:13;12.13;;;9.00;;
65387;SDS011;51992;53.528;49.474;2022-11-21T14:33:40;12.82;;;8.13;;
65387;SDS011;51992;53.528;49.474;2022-11-21T14:36:07;11.10;;;8.65;;
65387;SDS011;51992;53.528;49.474;2022-11-21T14:41:20;17.27;;;10.50;;
65387;SDS011;51992;53.528;49.474;2022-11-21T14:43:47;13.07;;;9.35;;
65387;SDS011;51992;53.528;49.474;2022-11-21T14:46:13;12.48;;;8.30;;
65387;SDS011;51992;53.528;49.474;2022-11-21T14:48:40;11.48;;;8.68;;
65387;SDS011;51992;53.528;49.474;2022-11-21T14:51:16;12.57;;;8.70;;
65387;SDS011;51992;53.528;49.474;2022-11-21T14:53:43;11.65;;;9.23;;
65387;SDS011;51992;53.528;49.474;2022-11-21T14:56:15;21.08;;;14.95;;
65387;SDS011;51992;53.528;49.474;2022-11-21T14:58:44;14.68;;;10.43;;
65387;SDS011;51992;53.528;49.474;2022-11-21T15:01:20;13.18;;;9.40;;
65387;SDS011;51992;53.528;49.474;2022-11-21T15:03:54;20.98;;;13.52;;
65387;SDS011;51992;53.528;49.474;2022-11-21T15:06:20;27.27;;;18.13;;
65387;SDS011;51992;53.528;49.474;2022-11-21T15:08:45;35.42;;;26.40;;
65387;SDS011;51992;53.528;49.474;2022-11-21T15:11:11;21.10;;;15.57;;
65387;SDS011;51992;53.528;49.474;2022-11-21T15:13:37;23.92;;;17.95;;
65387;SDS011;51992;53.528;49.474;2022-11-21T15:16:04;16.27;;;12.07;;
65387;SDS011;51992;53.528;49.474;2022-11-21T15:18:29;11.52;;;9.95;;
65387;SDS011;51992;53.528;49.474;2022-11-21T15:20:57;11.43;;;8.75;;
65387;SDS011;51992;53.528;49.474;2022-11-21T15:23:25;11.60;;;7.85;;
65387;SDS011;51992;53.528;49.474;2022-11-21T15:25:51;14.70;;;11.55;;
65387;SDS011;51992;53.528;49.474;2022-11-21T15:28:17;19.30;;;12.90;;
65387;SDS011;51992;53.528;49.474;2022-11-21T15:30:43;17.02;;;11.32;;
65387;SDS011;51992;53.528;49.474;2022-11-21T15:33:16;14.23;;;11.27;;
65387;SDS011;51992;53.528;49.474;2022-11-21T15:35:57;14.05;;;10.20;;
65387;SDS011;51992;53.528;49.474;2022-11-21T15:38:48;14.43;;;9.73;;
65387;SDS011;51992;53.528;49.474;2022-11-21T15:43:42;12.52;;;9.68;;
65387;SDS011;51992;53.528;49.474;2022-11-21T15:46:25;14.13;;;9.48;;
65387;SDS011;51992;53.528;49.474;2022-11-21T15:48:55;14.70;;;11.05;;
65387;SDS011;51992;53.528;49.474;2022-11-21T15:51:22;15.40;;;12.13;;
65387;SDS011;51992;53.528;49.474;2022-11-21T15:53:48;16.90;;;13.23;;
65387;SDS011;51992;53.528;49.474;2022-11-21T15:56:15;18.42;;;11.55;;
65387;SDS011;51992;53.528;49.474;2022-11-21T15:58:42;12.68;;;10.25;;
65387;SDS011;51992;53.528;49.474;2022-11-21T16:01:18;16.17;;;12.18;;
65387;SDS011;51992;53.528;49.474;2022-11-21T16:03:44;21.42;;;15.95;;
65387;SDS011;51992;53.528;49.474;2022-11-21T16:06:10;15.38;;;10.90;;
65387;SDS011;51992;53.528;49.474;2022-11-21T16:08:36;14.25;;;11.05;;
65387;SDS011;51992;53.528;49.474;2022-11-21T16:11:02;13.65;;;10.63;;
65387;SDS011;51992;53.528;49.474;2022-11-21T16:13:28;15.68;;;9.82;;
65387;SDS011;51992;53.528;49.474;2022-11-21T16:15:54;13.63;;;10.15;;
65387;SDS011;51992;53.528;49.474;2022-11-21T16:18:20;12.40;;;9.13;;
65387;SDS011;51992;53.528;49.474;2022-11-21T16:20:45;12.20;;;9.13;;
65387;SDS011;51992;53.528;49.474;2022-11-21T16:23:11;11.68;;;8.88;;
65387;SDS011;51992;53.528;49.474;2022-11-21T16:25:37;20.15;;;14.32;;